createdAt,value
2019-04-22T00:02:11.890Z,16.23
2019-04-22T00:04:30.196Z,17.97
2019-04-22T00:06:51.722Z,17.00
2019-04-22T00:09:02.259Z,16.23
2019-04-22T00:11:21.239Z,19.70
2019-04-22T00:13:26.539Z,17.40
2019-04-22T00:15:29.463Z,18.57
2019-04-22T00:20:00.446Z,18.47
2019-04-22T00:22:08.040Z,23.50
2019-04-22T00:24:12.221Z,17.67
2019-04-22T00:26:23.963Z,17.27
2019-04-22T00:28:41.542Z,19.00
2019-04-22T00:30:40.627Z,21.47
2019-04-22T00:33:03.452Z,17.03
2019-04-22T00:35:15.202Z,24.17
2019-04-22T00:37:25.038Z,19.50
2019-04-22T00:41:42.837Z,22.27
2019-04-22T00:43:56.769Z,20.77
2019-04-22T00:46:01.125Z,18.73
2019-04-22T00:48:16.022Z,23.10
2019-04-22T00:50:26.764Z,26.80
2019-04-22T00:52:34.681Z,21.33
2019-04-22T00:54:51.260Z,17.73
2019-04-22T00:56:50.843Z,20.17
2019-04-22T00:58:59.101Z,21.50
2019-04-22T01:01:14.374Z,20.03
2019-04-22T01:03:27.453Z,25.53
2019-04-22T01:05:34.404Z,26.43
2019-04-22T01:07:44.565Z,59.43
2019-04-22T01:09:58.630Z,19.93
2019-04-22T01:11:59.119Z,19.57
2019-04-22T01:14:09.229Z,16.80
2019-04-22T01:16:24.989Z,20.73
2019-04-22T01:18:27.938Z,19.53
2019-04-22T01:21:02.195Z,23.03
2019-04-22T01:22:46.242Z,19.57
2019-04-22T01:24:57.855Z,19.73
2019-04-22T01:27:03.208Z,23.03
2019-04-22T01:29:12.667Z,20.77
2019-04-22T01:31:12.362Z,19.87
2019-04-22T01:33:28.115Z,22.07
2019-04-22T01:35:41.198Z,22.93
2019-04-22T01:37:54.177Z,19.27
2019-04-22T01:40:14.774Z,17.77
2019-04-22T01:42:18.802Z,19.53
2019-04-22T01:44:33.395Z,16.63
2019-04-22T01:46:47.630Z,18.50
2019-04-22T01:48:47.287Z,19.67
2019-04-22T01:50:54.778Z,17.60
2019-04-22T01:53:27.364Z,18.30
2019-04-22T01:57:22.937Z,14.30
2019-04-22T01:59:28.638Z,16.00
2019-04-22T02:01:53.492Z,13.30
2019-04-22T02:03:57.443Z,14.53
2019-04-22T02:06:06.934Z,13.27
2019-04-22T02:08:27.673Z,17.53
2019-04-22T02:10:30.136Z,15.57
2019-04-22T02:12:35.469Z,15.80
2019-04-22T02:16:55.870Z,16.53
2019-04-22T02:19:08.963Z,14.70
2019-04-22T02:21:09.338Z,12.47
2019-04-22T02:23:45.174Z,12.57
2019-04-22T02:25:40.986Z,12.53
2019-04-22T02:27:46.008Z,13.27
2019-04-22T02:29:54.075Z,12.67
2019-04-22T02:32:19.628Z,10.90
2019-04-22T02:36:30.074Z,14.43
2019-04-22T02:38:51.326Z,14.43
2019-04-22T02:41:10.196Z,13.40
2019-04-22T02:43:02.711Z,14.63
2019-04-22T02:45:26.650Z,11.23
2019-04-22T02:49:37.861Z,10.97
2019-04-22T02:56:05.516Z,10.33
2019-04-22T02:58:05.646Z,9.87
2019-04-22T03:00:21.592Z,9.23
2019-04-22T03:02:28.484Z,11.57
2019-04-22T03:04:37.480Z,13.80
2019-04-22T03:11:16.833Z,12.23
2019-04-22T03:13:21.387Z,14.77
2019-04-22T03:15:11.637Z,12.80
2019-04-22T03:17:36.764Z,15.00
2019-04-22T03:21:46.929Z,10.10
2019-04-22T03:24:18.026Z,8.87
2019-04-22T03:26:27.372Z,10.37
2019-04-22T03:28:18.812Z,10.20
2019-04-22T03:30:47.559Z,9.27
2019-04-22T03:33:05.472Z,11.37
2019-04-22T03:35:20.024Z,13.37
2019-04-22T03:39:28.249Z,11.43
2019-04-22T03:41:27.233Z,11.60
2019-04-22T03:43:33.787Z,9.83
2019-04-22T03:45:30.220Z,9.87
2019-04-22T03:47:53.736Z,11.63
2019-04-22T03:50:17.628Z,10.30
2019-04-22T03:54:29.841Z,14.50
2019-04-22T03:57:04.947Z,9.60
2019-04-22T03:58:28.850Z,10.70
2019-04-22T04:00:55.882Z,9.73
2019-04-22T04:02:59.565Z,12.93
2019-04-22T04:05:29.644Z,9.30
2019-04-22T04:11:39.017Z,10.07
2019-04-22T04:13:41.979Z,9.37
2019-04-22T04:15:38.370Z,8.20
2019-04-22T04:20:10.901Z,12.53
2019-04-22T04:22:35.886Z,12.73
2019-04-22T04:24:48.037Z,11.80
2019-04-22T04:31:19.553Z,10.73
2019-04-22T04:33:11.233Z,11.07
2019-04-22T04:35:23.893Z,10.90
2019-04-22T04:37:42.413Z,10.17
2019-04-22T04:39:40.518Z,12.20
2019-04-22T04:41:52.084Z,13.80
2019-04-22T04:44:11.163Z,11.43
2019-04-22T04:46:06.110Z,14.23
2019-04-22T04:48:14.453Z,12.33
2019-04-22T04:55:03.941Z,32.60
2019-04-22T04:56:46.628Z,17.43
2019-04-22T04:59:08.151Z,106.40
2019-04-22T05:03:21.217Z,37.97
2019-04-22T05:09:47.371Z,112.13
2019-04-22T05:12:01.858Z,110.30
2019-04-22T05:14:05.415Z,143.10
2019-04-22T05:16:25.100Z,13.93
2019-04-22T05:18:20.763Z,174.80
2019-04-22T05:22:43.096Z,128.10
2019-04-22T05:24:51.860Z,129.60
2019-04-22T05:27:10.869Z,140.10
2019-04-22T05:29:09.648Z,155.60
2019-04-22T05:31:27.615Z,144.23
2019-04-22T05:33:32.174Z,163.13
2019-04-22T05:35:33.296Z,16.83
2019-04-22T05:37:54.689Z,138.93
2019-04-22T05:40:04.466Z,14.13
2019-04-22T05:44:14.686Z,148.17
2019-04-22T05:46:22.525Z,138.00
2019-04-22T05:48:34.183Z,157.57
2019-04-22T05:50:37.345Z,13.30
2019-04-22T05:52:56.003Z,11.70
2019-04-22T05:55:08.281Z,12.90
2019-04-22T05:57:17.953Z,12.20
2019-04-22T05:59:24.433Z,10.73
2019-04-22T06:01:45.110Z,13.30
2019-04-22T06:03:50.899Z,18.70
2019-04-22T06:06:00.802Z,12.10
2019-04-22T06:08:08.265Z,12.40
2019-04-22T06:10:21.325Z,13.10
2019-04-22T06:12:23.387Z,11.13
2019-04-22T06:14:31.101Z,14.57
2019-04-22T06:16:50.250Z,92.70
2019-04-22T06:19:02.818Z,72.73
2019-04-22T06:21:11.548Z,116.77
2019-04-22T06:23:30.699Z,128.10
2019-04-22T06:25:57.830Z,120.00
2019-04-22T06:27:41.633Z,142.67
2019-04-22T06:29:51.321Z,126.00
2019-04-22T06:32:17.864Z,138.17
2019-04-22T06:34:11.901Z,73.23
2019-04-22T06:36:38.288Z,76.70
2019-04-22T06:38:35.902Z,78.07
2019-04-22T06:40:39.142Z,110.57
2019-04-22T06:42:53.390Z,124.43
2019-04-22T06:44:57.930Z,105.97
2019-04-22T06:47:10.535Z,97.70
2019-04-22T06:49:18.859Z,89.10
2019-04-22T06:51:30.982Z,124.67
2019-04-22T06:53:34.643Z,124.73
2019-04-22T06:55:45.826Z,115.03
2019-04-22T06:57:51.101Z,130.30
2019-04-22T07:00:05.285Z,129.70
2019-04-22T07:02:18.055Z,141.03
2019-04-22T07:04:22.257Z,155.17
2019-04-22T07:06:40.110Z,26.33
2019-04-22T07:10:50.453Z,85.37
2019-04-22T07:13:01.231Z,91.10
2019-04-22T07:15:24.387Z,68.27
2019-04-22T07:17:22.147Z,70.63
2019-04-22T07:19:33.629Z,68.03
2019-04-22T07:21:57.581Z,112.47
2019-04-22T07:24:03.040Z,174.57
2019-04-22T07:25:58.462Z,14.43
2019-04-22T07:28:11.183Z,13.63
2019-04-22T07:30:22.031Z,11.93
2019-04-22T07:32:54.919Z,11.83
2019-04-22T07:34:40.751Z,11.57
2019-04-22T07:36:59.002Z,13.13
2019-04-22T07:38:57.240Z,10.90
2019-04-22T07:41:05.848Z,12.23
2019-04-22T07:45:29.572Z,73.90
2019-04-22T07:47:38.074Z,58.53
2019-04-22T07:51:58.796Z,83.73
2019-04-22T07:54:06.501Z,42.67
2019-04-22T07:56:18.421Z,100.60
2019-04-22T07:58:26.106Z,69.67
2019-04-22T08:00:38.683Z,86.80
2019-04-22T08:07:10.726Z,176.47
2019-04-22T08:09:20.313Z,109.17
2019-04-22T08:11:37.650Z,86.30
2019-04-22T08:15:48.533Z,159.43
2019-04-22T08:20:05.549Z,72.03
2019-04-22T08:22:11.861Z,118.90
2019-04-22T08:24:23.886Z,99.53
2019-04-22T08:26:36.636Z,73.47
2019-04-22T08:28:50.143Z,138.97
2019-04-22T08:30:55.079Z,69.70
2019-04-22T08:33:04.077Z,106.43
2019-04-22T08:35:18.720Z,130.93
2019-04-22T08:39:31.158Z,152.43
2019-04-22T08:41:37.547Z,55.73
2019-04-22T08:43:57.335Z,56.03
2019-04-22T08:46:06.182Z,126.00
2019-04-22T08:48:21.074Z,82.67
2019-04-22T08:50:25.512Z,65.17
2019-04-22T08:52:38.636Z,80.77
2019-04-22T08:54:44.930Z,87.53
2019-04-22T08:56:50.690Z,60.67
2019-04-22T09:01:11.229Z,109.30
2019-04-22T09:03:16.002Z,144.47
2019-04-22T09:05:52.176Z,74.63
2019-04-22T09:07:48.568Z,38.67
2019-04-22T09:09:54.081Z,55.23
2019-04-22T09:12:04.357Z,22.63
2019-04-22T09:14:11.626Z,39.73
2019-04-22T09:16:21.906Z,42.57
2019-04-22T09:18:32.936Z,33.57
2019-04-22T09:20:41.820Z,26.87
2019-04-22T09:22:48.430Z,38.70
2019-04-22T09:24:51.774Z,37.13
2019-04-22T09:27:11.263Z,38.50
2019-04-22T09:29:20.939Z,53.10
2019-04-22T09:31:24.016Z,27.17
2019-04-22T09:33:36.895Z,45.40
2019-04-22T09:42:10.751Z,16.77
2019-04-22T09:44:21.841Z,161.37
2019-04-22T09:46:39.602Z,33.10
2019-04-22T09:48:43.893Z,42.67
2019-04-22T09:50:57.327Z,171.03
2019-04-22T09:53:02.119Z,166.20
2019-04-22T09:55:12.516Z,170.40
2019-04-22T09:57:21.686Z,171.83
2019-04-22T09:59:35.295Z,166.47
2019-04-22T10:01:50.417Z,159.57
2019-04-22T10:03:56.292Z,182.37
2019-04-22T10:06:13.271Z,158.73
2019-04-22T10:08:18.557Z,118.47
2019-04-22T10:16:50.762Z,126.10
2019-04-22T10:21:19.131Z,131.77
2019-04-22T10:23:20.227Z,126.27
2019-04-22T10:25:32.720Z,138.90
2019-04-22T10:27:39.803Z,162.03
2019-04-22T10:29:53.693Z,132.37
2019-04-22T10:31:55.807Z,97.00
2019-04-22T10:33:58.475Z,9.90
2019-04-22T10:35:51.862Z,14.53
2019-04-22T10:38:00.676Z,11.38
2019-04-22T10:40:15.819Z,12.60
2019-04-22T10:42:25.221Z,13.18
2019-04-22T10:44:35.258Z,13.83
2019-04-22T10:46:44.354Z,15.53
2019-04-22T10:48:52.756Z,12.80
2019-04-22T10:51:01.032Z,13.07
2019-04-22T10:53:09.123Z,12.30
2019-04-22T10:55:17.376Z,11.03
2019-04-22T10:57:25.639Z,9.40
2019-04-22T10:59:34.389Z,8.88
2019-04-22T11:01:42.423Z,10.17
2019-04-22T11:03:51.124Z,11.30
2019-04-22T11:05:59.406Z,13.88
2019-04-22T11:08:08.500Z,12.47
2019-04-22T11:10:34.666Z,11.03
2019-04-22T11:12:30.810Z,10.73
2019-04-22T11:14:40.159Z,11.40
2019-04-22T11:16:47.694Z,12.60
2019-04-22T11:18:55.882Z,15.13
2019-04-22T11:21:05.283Z,10.38
2019-04-22T11:23:14.386Z,10.72
2019-04-22T11:25:23.610Z,11.43
2019-04-22T11:27:32.926Z,10.58
2019-04-22T11:29:41.541Z,9.10
2019-04-22T11:31:50.442Z,11.68
2019-04-22T11:33:58.623Z,12.20
2019-04-22T11:36:07.957Z,15.17
2019-04-22T11:38:17.288Z,16.00
2019-04-22T11:40:34.831Z,20.03
2019-04-22T11:42:36.317Z,17.12
2019-04-22T11:44:45.407Z,20.90
2019-04-22T11:46:53.694Z,38.90
2019-04-22T11:49:01.724Z,52.00
2019-04-22T11:51:09.775Z,106.60
2019-04-22T11:53:18.657Z,88.03
2019-04-22T11:55:26.933Z,69.07
2019-04-22T11:57:35.031Z,76.45
2019-04-22T11:59:43.072Z,47.35
2019-04-22T12:01:52.812Z,51.95
2019-04-22T12:04:02.170Z,36.68
2019-04-22T12:06:10.390Z,60.10
2019-04-22T12:08:18.743Z,28.52
2019-04-22T12:10:34.684Z,41.20
2019-04-22T12:12:36.999Z,19.35
2019-04-22T12:14:45.879Z,13.43
2019-04-22T12:16:55.195Z,46.92
2019-04-22T12:19:03.209Z,29.63
2019-04-22T12:21:11.028Z,60.80
2019-04-22T12:23:18.989Z,47.38
2019-04-22T12:25:34.842Z,32.03
2019-04-22T12:27:38.888Z,50.12
2019-04-22T12:29:47.182Z,20.08
2019-04-22T12:31:55.614Z,30.12
2019-04-22T12:34:05.986Z,34.05
2019-04-22T12:36:14.951Z,17.98
2019-04-22T12:38:24.092Z,34.27
2019-04-22T12:40:40.790Z,35.15
2019-04-22T12:42:42.150Z,25.52
2019-04-22T12:44:51.182Z,17.75
2019-04-22T12:47:00.733Z,21.90
2019-04-22T12:49:09.906Z,16.48
2019-04-22T12:51:18.881Z,16.67
2019-04-22T12:53:28.040Z,24.50
2019-04-22T12:55:37.474Z,27.50
2019-04-22T12:57:46.452Z,23.35
2019-04-22T12:59:55.428Z,26.37
2019-04-22T13:02:03.246Z,25.97
2019-04-22T13:04:15.304Z,24.60
2019-04-22T13:06:21.734Z,17.57
2019-04-22T13:08:29.859Z,21.33
2019-04-22T13:10:45.627Z,19.20
2019-04-22T13:12:47.219Z,19.73
2019-04-22T13:14:55.111Z,16.02
2019-04-22T13:17:04.024Z,22.37
2019-04-22T13:19:14.958Z,19.27
2019-04-22T13:21:22.761Z,18.80
2019-04-22T13:23:31.769Z,26.15
2019-04-22T13:25:40.903Z,20.43
2019-04-22T13:27:49.169Z,18.80
2019-04-22T13:29:57.407Z,14.38
2019-04-22T13:32:06.850Z,22.22
2019-04-22T13:34:21.630Z,21.80
2019-04-22T13:36:27.650Z,25.17
2019-04-22T13:38:35.376Z,26.40
2019-04-22T13:40:57.880Z,18.60
2019-04-22T13:42:53.521Z,25.10
2019-04-22T13:45:01.973Z,43.33
2019-04-22T13:47:27.940Z,81.95
2019-04-22T13:49:49.415Z,40.20
2019-04-22T13:52:02.371Z,23.18
2019-04-22T13:54:36.855Z,27.13
2019-04-22T13:56:26.310Z,24.52
2019-04-22T13:58:14.599Z,21.25
2019-04-22T14:00:13.802Z,21.87
2019-04-22T14:02:32.731Z,29.42
2019-04-22T14:04:42.935Z,31.10
2019-04-22T14:06:52.535Z,23.05
2019-04-22T14:09:01.219Z,24.10
2019-04-22T14:11:16.805Z,27.02
2019-04-22T14:13:21.670Z,36.10
2019-04-22T14:15:31.975Z,35.80
2019-04-22T14:17:41.027Z,38.28
2019-04-22T14:19:48.903Z,34.90
2019-04-22T14:21:57.800Z,36.03
2019-04-22T14:24:07.360Z,27.42
2019-04-22T14:26:15.479Z,26.65
2019-04-22T14:28:25.136Z,24.07
2019-04-22T14:30:34.572Z,18.35
2019-04-22T14:32:43.989Z,21.60
2019-04-22T14:34:53.201Z,39.27
2019-04-22T14:37:01.494Z,25.97
2019-04-22T14:39:12.198Z,42.83
2019-04-22T14:41:35.831Z,40.75
2019-04-22T14:44:24.523Z,25.82
2019-04-22T14:46:08.067Z,22.67
2019-04-22T14:48:11.012Z,28.23
2019-04-22T14:50:17.861Z,34.75
2019-04-22T14:52:33.174Z,24.18
2019-04-22T14:54:34.577Z,31.02
2019-04-22T14:56:28.680Z,26.17
2019-04-22T14:58:37.398Z,28.15
2019-04-22T15:00:45.937Z,39.08
2019-04-22T15:02:55.463Z,47.93
2019-04-22T15:05:03.821Z,41.28
2019-04-22T15:07:12.758Z,87.72
2019-04-22T15:09:21.845Z,66.37
2019-04-22T15:11:41.809Z,74.75
2019-04-22T15:13:39.196Z,30.12
2019-04-22T15:16:03.015Z,22.13
2019-04-22T15:18:33.468Z,19.95
2019-04-22T15:20:54.301Z,26.33
2019-04-22T15:23:02.462Z,43.68
2019-04-22T15:25:10.619Z,47.33
2019-04-22T15:27:31.123Z,26.42
2019-04-22T15:29:39.251Z,25.32
2019-04-22T15:31:47.481Z,21.80
2019-04-22T15:33:56.424Z,22.62
2019-04-22T15:36:05.719Z,18.48
2019-04-22T15:38:15.416Z,19.67
2019-04-22T15:40:24.734Z,24.05
2019-04-22T15:42:37.732Z,25.70
2019-04-22T15:44:44.189Z,33.60
2019-04-22T15:46:53.193Z,28.65
2019-04-22T15:49:02.150Z,22.55
2019-04-22T15:51:10.949Z,28.20
2019-04-22T15:53:20.047Z,23.85
2019-04-22T15:55:29.119Z,31.87
2019-04-22T15:57:39.450Z,28.50
2019-04-22T16:00:02.308Z,28.60
2019-04-22T16:02:00.124Z,22.05
2019-04-22T16:04:06.430Z,27.97
2019-04-22T16:06:15.665Z,24.35
2019-04-22T16:08:24.698Z,25.80
2019-04-22T16:10:33.796Z,23.95
2019-04-22T16:12:53.046Z,31.70
2019-04-22T16:14:56.495Z,31.55
2019-04-22T16:17:01.264Z,21.63
2019-04-22T16:19:09.657Z,20.75
2019-04-22T16:21:30.180Z,22.42
2019-04-22T16:23:56.545Z,22.13
2019-04-22T16:26:42.510Z,24.07
2019-04-22T16:28:53.737Z,23.42
2019-04-22T16:31:01.450Z,26.10
2019-04-22T16:33:10.406Z,28.60
2019-04-22T16:35:18.785Z,30.40
2019-04-22T16:37:26.790Z,28.53
2019-04-22T16:39:36.451Z,31.47
2019-04-22T16:41:46.575Z,72.83
2019-04-22T16:43:56.231Z,37.97
2019-04-22T16:46:05.637Z,30.77
2019-04-22T16:48:13.769Z,23.70
2019-04-22T16:50:23.031Z,27.97
2019-04-22T16:52:32.190Z,33.83
2019-04-22T16:54:48.510Z,54.23
2019-04-22T16:56:57.559Z,37.10
2019-04-22T16:59:06.667Z,23.83
2019-04-22T17:01:36.722Z,25.57
2019-04-22T17:04:04.866Z,26.30
2019-04-22T17:06:32.259Z,33.67
2019-04-22T17:08:40.443Z,26.13
2019-04-22T17:10:49.479Z,30.57
2019-04-22T17:13:03.501Z,34.10
2019-04-22T17:15:12.331Z,32.23
2019-04-22T17:17:20.239Z,26.37
2019-04-22T17:19:29.194Z,43.15
2019-04-22T17:21:37.575Z,34.20
2019-04-22T17:23:45.787Z,32.20
2019-04-22T17:25:54.432Z,34.40
2019-04-22T17:28:03.560Z,31.30
2019-04-22T17:30:12.470Z,33.17
2019-04-22T17:32:23.049Z,29.80
2019-04-22T17:34:31.814Z,49.97
2019-04-22T17:36:40.531Z,41.13
2019-04-22T17:38:59.956Z,33.93
2019-04-22T17:41:11.651Z,27.73
2019-04-22T17:43:36.152Z,32.50
2019-04-22T17:45:55.865Z,38.77
2019-04-22T17:48:38.246Z,38.00
2019-04-22T17:50:44.435Z,39.83
2019-04-22T17:53:03.592Z,35.50
2019-04-22T17:55:02.707Z,46.67
2019-04-22T17:57:09.979Z,51.10
2019-04-22T17:59:23.346Z,37.83
2019-04-22T18:01:32.617Z,43.07
2019-04-22T18:03:32.500Z,29.80
2019-04-22T18:05:43.793Z,34.50
2019-04-22T18:08:09.698Z,27.57
2019-04-22T18:10:27.543Z,25.27
2019-04-22T18:12:36.206Z,48.90
2019-04-22T18:14:44.857Z,57.53
2019-04-22T18:16:43.006Z,32.93
2019-04-22T18:18:52.891Z,32.77
2019-04-22T18:20:57.454Z,30.27
2019-04-22T18:23:03.631Z,26.27
2019-04-22T18:25:14.886Z,27.20
2019-04-22T18:27:47.270Z,34.27
2019-04-22T18:29:43.418Z,34.13
2019-04-22T18:31:44.159Z,34.53
2019-04-22T18:33:59.449Z,33.50
2019-04-22T18:36:09.973Z,38.37
2019-04-22T18:38:32.999Z,36.87
2019-04-22T18:40:30.819Z,27.97
2019-04-22T18:42:45.776Z,30.93
2019-04-22T18:44:55.556Z,32.10
2019-04-22T18:47:01.200Z,42.37
2019-04-22T18:49:11.048Z,40.27
2019-04-22T18:51:35.232Z,65.40
2019-04-22T18:54:00.160Z,48.93
2019-04-22T18:56:19.160Z,44.13
2019-04-22T18:58:21.463Z,43.77
2019-04-22T19:00:21.298Z,44.17
2019-04-22T19:02:33.162Z,32.67
2019-04-22T19:04:53.068Z,35.23
2019-04-22T19:07:07.458Z,42.00
2019-04-22T19:09:27.341Z,29.10
2019-04-22T19:11:30.154Z,34.90
2019-04-22T19:13:56.037Z,86.93
2019-04-22T19:16:25.591Z,70.27
2019-04-22T19:20:47.857Z,78.30
2019-04-22T19:22:55.256Z,58.13
2019-04-22T19:24:54.745Z,42.80
2019-04-22T19:27:20.113Z,31.03
2019-04-22T19:29:18.639Z,29.30
2019-04-22T19:31:40.754Z,35.33
2019-04-22T19:33:34.556Z,39.20
2019-04-22T19:35:40.218Z,35.63
2019-04-22T19:37:51.944Z,26.23
2019-04-22T19:42:25.121Z,45.87
2019-04-22T19:44:26.266Z,28.63
2019-04-22T19:46:35.433Z,29.37
2019-04-22T19:48:45.715Z,30.07
2019-04-22T19:51:06.966Z,29.60
2019-04-22T19:53:03.529Z,30.27
2019-04-22T19:55:14.090Z,31.63
2019-04-22T19:57:24.930Z,33.93
2019-04-22T19:59:32.744Z,29.53
2019-04-22T20:02:00.684Z,23.00
2019-04-22T20:04:41.303Z,27.60
2019-04-22T20:06:47.872Z,58.73
2019-04-22T20:08:59.312Z,35.33
2019-04-22T20:11:12.880Z,42.70
2019-04-22T20:13:25.212Z,35.47
2019-04-22T20:15:22.636Z,36.20
2019-04-22T20:17:56.489Z,49.60
2019-04-22T20:19:50.149Z,44.77
2019-04-22T20:21:59.656Z,94.10
2019-04-22T20:23:55.926Z,61.93
2019-04-22T20:26:07.563Z,57.83
2019-04-22T20:28:29.094Z,43.20
2019-04-22T20:30:39.933Z,60.97
2019-04-22T20:32:44.617Z,48.20
2019-04-22T20:34:57.529Z,49.10
2019-04-22T20:37:10.467Z,57.73
2019-04-22T20:39:10.884Z,44.50
2019-04-22T20:41:22.807Z,51.23
2019-04-22T20:43:43.140Z,37.70
2019-04-22T20:45:46.645Z,35.77
2019-04-22T20:47:45.440Z,40.20
2019-04-22T20:50:05.509Z,34.67
2019-04-22T20:52:19.246Z,49.70
2019-04-22T20:54:22.917Z,36.73
2019-04-22T20:56:29.978Z,39.27
2019-04-22T20:58:47.965Z,55.57
2019-04-22T21:00:46.425Z,69.33
2019-04-22T21:02:51.308Z,56.20
2019-04-22T21:04:59.076Z,55.93
2019-04-22T21:07:16.853Z,48.73
2019-04-22T21:09:27.298Z,44.97
2019-04-22T21:11:38.564Z,59.57
2019-04-22T21:13:51.326Z,43.33
2019-04-22T21:16:04.524Z,56.63
2019-04-22T21:18:05.565Z,48.67
2019-04-22T21:20:28.977Z,52.23
2019-04-22T21:22:33.911Z,42.33
2019-04-22T21:24:34.745Z,39.73
2019-04-22T21:26:44.061Z,35.57
2019-04-22T21:28:56.741Z,53.27
2019-04-22T21:31:17.161Z,43.07
2019-04-22T21:33:16.291Z,49.73
2019-04-22T21:35:47.517Z,41.10
2019-04-22T21:37:43.060Z,64.93
2019-04-22T21:39:42.099Z,45.93
2019-04-22T21:41:56.987Z,54.07
2019-04-22T21:44:12.812Z,39.77
2019-04-22T21:46:20.770Z,35.67
2019-04-22T21:48:37.172Z,41.87
2019-04-22T21:52:54.775Z,34.80
2019-04-22T21:55:08.692Z,24.93
2019-04-22T21:57:24.173Z,44.03
2019-04-22T21:59:30.693Z,54.10
2019-04-22T22:04:04.765Z,45.07
2019-04-22T22:06:02.967Z,37.93
2019-04-22T22:08:27.324Z,38.80
2019-04-22T22:10:34.487Z,51.17
2019-04-22T22:12:40.790Z,31.30
2019-04-22T22:14:51.332Z,40.17
2019-04-22T22:16:53.399Z,50.47
2019-04-22T22:19:11.719Z,58.63
2019-04-22T22:21:34.917Z,63.73
2019-04-22T22:23:34.526Z,53.77
2019-04-22T22:25:33.706Z,73.10
2019-04-22T22:27:44.374Z,64.20
2019-04-22T22:30:29.390Z,52.87
2019-04-22T22:32:13.278Z,43.07
2019-04-22T22:34:19.091Z,56.63
2019-04-22T22:36:20.727Z,69.63
2019-04-22T22:38:31.194Z,50.60
2019-04-22T22:40:27.653Z,49.33
2019-04-22T22:42:38.680Z,67.33
2019-04-22T22:44:46.759Z,47.67
2019-04-22T22:47:08.598Z,52.90
2019-04-22T22:49:23.397Z,54.10
2019-04-22T22:51:39.605Z,49.50
2019-04-22T22:53:46.402Z,65.90
2019-04-22T22:55:46.381Z,68.87
2019-04-22T22:58:01.331Z,69.00
2019-04-22T23:00:09.709Z,51.37
2019-04-22T23:02:15.682Z,54.97
2019-04-22T23:06:38.280Z,61.53
2019-04-22T23:08:51.870Z,50.47
2019-04-22T23:11:00.945Z,52.07
2019-04-22T23:13:06.882Z,45.70
2019-04-22T23:15:12.034Z,38.53
2019-04-22T23:17:10.013Z,57.50
2019-04-22T23:19:13.586Z,51.53
2019-04-22T23:21:29.305Z,58.73
2019-04-22T23:23:53.010Z,57.17
2019-04-22T23:26:02.568Z,63.57
2019-04-22T23:28:26.595Z,60.97
2019-04-22T23:30:44.590Z,53.77
2019-04-22T23:33:05.810Z,49.07
2019-04-22T23:35:22.669Z,71.70
2019-04-22T23:37:39.398Z,57.80
2019-04-22T23:39:56.548Z,55.70
2019-04-22T23:42:20.885Z,51.13
2019-04-22T23:44:14.326Z,56.40
2019-04-22T23:46:19.004Z,42.97
2019-04-22T23:48:24.579Z,76.33
2019-04-22T23:50:37.566Z,27.93
2019-04-22T23:52:53.318Z,62.10
2019-04-22T23:55:06.571Z,56.63
2019-04-22T23:57:08.817Z,56.77
2019-04-22T23:59:37.942Z,59.43
